Time;durP1;ratioP1;P1;durP2;ratioP2;P2;SDS_P1;SDS_P2;PMS_P1;PMS_P2;Temp;Humidity;BMP_temperature;BMP_pressure;BME280_temperature;BME280_humidity;BME280_pressure;Samples;Min_cycle;Max_cycle;Signal;HPM_P1;HPM_P2
2023/02/05 00:01:21;;;;;;;10.50;9.50;;;7.60;99.90;;;;;;5072379;28;20178;-65
2023/02/05 00:03:47;;;;;;;14.77;10.03;;;7.50;99.90;;;;;;5076864;28;20209;-65
2023/02/05 00:06:12;;;;;;;10.90;9.77;;;7.40;99.90;;;;;;5092504;28;20216;-65
2023/02/05 00:08:38;;;;;;;11.37;10.33;;;7.30;99.90;;;;;;5089298;28;20184;-65
2023/02/05 00:11:08;;;;;;;11.93;10.90;;;7.30;99.90;;;;;;5071839;28;20166;-64
2023/02/05 00:13:35;;;;;;;13.23;10.87;;;7.30;99.90;;;;;;5088233;28;20217;-65
2023/02/05 00:16:16;;;;;;;14.80;9.97;;;7.20;99.90;;;;;;5092519;28;20602;-64
2023/02/05 00:18:42;;;;;;;13.67;10.50;;;7.20;99.90;;;;;;5088031;28;20193;-63
2023/02/05 00:21:08;;;;;;;18.60;10.30;;;7.30;99.90;;;;;;5072224;28;20564;-64
2023/02/05 00:23:34;;;;;;;12.93;10.20;;;7.30;99.90;;;;;;5072287;28;20202;-64
2023/02/05 00:26:00;;;;;;;15.17;10.27;;;7.30;99.90;;;;;;5072208;28;20541;-65
2023/02/05 00:28:26;;;;;;;14.67;10.20;;;7.30;99.90;;;;;;5084624;28;20290;-64
2023/02/05 00:30:51;;;;;;;14.20;10.47;;;7.30;99.90;;;;;;5092008;28;20193;-64
2023/02/05 00:33:17;;;;;;;18.83;10.10;;;7.30;99.90;;;;;;5081235;28;20185;-64
2023/02/05 00:35:43;;;;;;;9.47;8.53;;;7.30;99.90;;;;;;5072012;28;20687;-64
2023/02/05 00:38:08;;;;;;;12.70;9.60;;;7.30;99.90;;;;;;5073604;28;20208;-64
2023/02/05 00:40:34;;;;;;;10.83;9.83;;;7.30;99.90;;;;;;5071610;28;20177;-64
2023/02/05 00:42:59;;;;;;;11.47;9.97;;;7.30;99.90;;;;;;5077642;28;20216;-65
2023/02/05 00:45:30;;;;;;;9.23;8.60;;;7.30;99.90;;;;;;5092018;28;20195;-64
2023/02/05 00:47:56;;;;;;;14.30;11.00;;;7.30;99.90;;;;;;5085413;28;20620;-64
2023/02/05 00:50:22;;;;;;;12.97;9.23;;;7.30;99.90;;;;;;5071568;28;20177;-64
2023/02/05 00:52:47;;;;;;;11.47;10.47;;;7.30;99.90;;;;;;5076093;28;20268;-64
2023/02/05 00:55:13;;;;;;;11.80;10.43;;;7.30;99.90;;;;;;5092323;28;20201;-64
2023/02/05 00:57:38;;;;;;;11.47;10.53;;;7.30;99.90;;;;;;5088868;28;20188;-64
2023/02/05 01:00:05;;;;;;;11.00;9.63;;;7.30;99.90;;;;;;5071415;28;20170;-64
2023/02/05 01:02:31;;;;;;;10.00;9.20;;;7.30;99.90;;;;;;5072454;28;20713;-64
2023/02/05 01:04:57;;;;;;;9.83;8.87;;;7.30;99.90;;;;;;5091611;28;20205;-64
2023/02/05 01:07:23;;;;;;;9.90;9.27;;;7.30;99.90;;;;;;5074553;28;20678;-65
2023/02/05 01:09:48;;;;;;;15.93;9.80;;;7.30;99.90;;;;;;5071422;28;20166;-64
2023/02/05 01:12:14;;;;;;;12.53;8.93;;;7.30;99.90;;;;;;5071348;28;20174;-64
2023/02/05 01:14:40;;;;;;;12.73;11.23;;;7.30;99.90;;;;;;5071650;28;20204;-64
2023/02/05 01:17:06;;;;;;;10.77;9.83;;;7.30;99.90;;;;;;5071286;28;20204;-64
2023/02/05 01:19:35;;;;;;;10.50;9.50;;;7.30;99.90;;;;;;5071125;28;20182;-64
2023/02/05 01:22:01;;;;;;;10.47;9.67;;;7.40;99.90;;;;;;5071473;28;20658;-64
2023/02/05 01:24:27;;;;;;;11.80;9.37;;;7.30;99.90;;;;;;5071352;28;20217;-64
2023/02/05 01:26:54;;;;;;;11.50;10.60;;;7.30;99.90;;;;;;5071028;28;20202;-64
2023/02/05 01:29:21;;;;;;;14.77;9.63;;;7.30;99.90;;;;;;5071322;28;20220;-64
2023/02/05 01:31:47;;;;;;;11.57;10.37;;;7.40;99.90;;;;;;5073027;28;20544;-64
2023/02/05 01:34:12;;;;;;;11.47;9.20;;;7.40;99.90;;;;;;5071307;28;20181;-64
2023/02/05 01:36:38;;;;;;;15.33;10.43;;;7.30;99.90;;;;;;5066733;22;20358;-64
2023/02/05 01:39:04;;;;;;;12.80;11.37;;;7.20;99.90;;;;;;5011481;28;20637;-63
2023/02/05 01:41:29;;;;;;;12.10;10.90;;;7.10;99.90;;;;;;5011199;28;20234;-66
2023/02/05 01:44:03;;;;;;;11.87;10.33;;;7.10;99.90;;;;;;5011504;28;20688;-64
2023/02/05 01:46:30;;;;;;;17.00;11.97;;;7.10;99.90;;;;;;5011395;28;20199;-66
2023/02/05 01:48:58;;;;;;;12.57;9.97;;;7.10;99.90;;;;;;5010026;28;20176;-64
2023/02/05 01:51:27;;;;;;;10.77;9.93;;;7.10;99.90;;;;;;5011113;28;20254;-64
2023/02/05 01:53:53;;;;;;;9.43;8.73;;;7.00;99.90;;;;;;5011508;28;20195;-64
2023/02/05 01:56:25;;;;;;;19.07;9.87;;;7.00;99.90;;;;;;5011305;28;20604;-64
2023/02/05 01:59:01;;;;;;;14.10;9.67;;;7.00;99.90;;;;;;5011374;28;20222;-64
2023/02/05 02:01:27;;;;;;;9.97;9.07;;;7.10;99.90;;;;;;4991571;28;20180;-64
2023/02/05 02:03:54;;;;;;;12.43;9.60;;;7.10;99.90;;;;;;4991890;28;20201;-64
2023/02/05 02:06:20;;;;;;;11.10;8.97;;;7.10;99.90;;;;;;5010040;28;20192;-64
2023/02/05 02:08:45;;;;;;;15.47;10.40;;;7.00;99.90;;;;;;5011446;28;20226;-64
2023/02/05 02:11:16;;;;;;;13.30;9.10;;;7.00;99.90;;;;;;5010596;28;20764;-64
2023/02/05 02:13:44;;;;;;;11.07;10.00;;;7.00;99.90;;;;;;5011441;28;20550;-64
2023/02/05 02:16:10;;;;;;;12.27;9.73;;;7.00;99.90;;;;;;5011175;28;20200;-64
2023/02/05 02:18:38;;;;;;;20.60;10.00;;;7.00;99.90;;;;;;5010862;28;20185;-64
2023/02/05 02:21:33;;;;;;;19.00;9.90;;;7.00;99.90;;;;;;5010701;28;20207;-64
2023/02/05 02:24:17;;;;;;;12.30;10.37;;;7.00;99.90;;;;;;5011021;28;20317;-64
2023/02/05 02:27:15;;;;;;;20.20;10.77;;;6.90;99.90;;;;;;5011166;28;20192;-64
2023/02/05 02:30:03;;;;;;;19.07;11.27;;;6.90;99.90;;;;;;4989216;28;20292;-64
2023/02/05 02:32:47;;;;;;;21.50;10.60;;;6.90;99.90;;;;;;4998834;28;20172;-64
2023/02/05 02:35:19;;;;;;;13.20;11.80;;;6.90;99.90;;;;;;5014736;28;20532;-64
2023/02/05 02:37:57;;;;;;;23.33;12.73;;;6.90;99.90;;;;;;5014239;28;20199;-64
2023/02/05 02:40:34;;;;;;;20.47;11.93;;;6.80;99.90;;;;;;5014325;28;20168;-64
2023/02/05 02:43:06;;;;;;;17.37;11.37;;;6.80;99.90;;;;;;5012820;28;20192;-64
2023/02/05 02:45:35;;;;;;;19.83;12.47;;;6.80;99.90;;;;;;5014684;28;20199;-63
2023/02/05 02:48:03;;;;;;;19.23;11.40;;;6.80;99.90;;;;;;5014170;28;20172;-64
2023/02/05 02:50:33;;;;;;;15.00;13.37;;;6.80;99.90;;;;;;5014220;28;20179;-64
2023/02/05 02:53:03;;;;;;;14.83;12.60;;;6.80;99.90;;;;;;5013748;28;20183;-64
2023/02/05 02:55:34;;;;;;;17.10;13.03;;;6.80;99.90;;;;;;5014233;28;20168;-64
2023/02/05 02:58:02;;;;;;;16.63;13.03;;;6.90;99.90;;;;;;5014142;28;20172;-64
2023/02/05 03:00:28;;;;;;;23.13;14.03;;;6.90;99.90;;;;;;5012588;28;20645;-64
2023/02/05 03:03:00;;;;;;;20.07;14.40;;;6.90;99.90;;;;;;5012577;28;20200;-66
2023/02/05 03:05:27;;;;;;;24.43;13.83;;;6.90;99.90;;;;;;5013044;28;20173;-64
2023/02/05 03:08:01;;;;;;;19.13;13.53;;;7.00;99.90;;;;;;5012368;28;20296;-64
2023/02/05 03:10:49;;;;;;;30.67;16.03;;;7.00;99.90;;;;;;5012797;28;20176;-64
2023/02/05 03:13:15;;;;;;;26.47;15.77;;;7.00;99.90;;;;;;5013010;28;20188;-64
2023/02/05 03:15:43;;;;;;;17.60;12.73;;;7.00;99.90;;;;;;5013442;28;20172;-63
2023/02/05 03:18:10;;;;;;;29.97;12.53;;;7.00;99.90;;;;;;5012990;28;20216;-64
2023/02/05 03:20:49;;;;;;;22.20;13.77;;;7.00;99.90;;;;;;5013441;28;20293;-64
2023/02/05 03:23:15;;;;;;;17.27;13.83;;;7.00;99.90;;;;;;5013697;28;20200;-64
2023/02/05 03:25:41;;;;;;;32.30;14.90;;;7.00;99.90;;;;;;5013651;28;20637;-64
2023/02/05 03:28:07;;;;;;;24.93;14.77;;;7.10;99.90;;;;;;5013348;28;20203;-64
2023/02/05 03:30:54;;;;;;;37.73;15.70;;;7.10;99.90;;;;;;5015874;28;20199;-68
2023/02/05 03:33:53;;;;;;;20.60;15.50;;;7.10;99.90;;;;;;4998216;28;20532;-67
2023/02/05 03:36:47;;;;;;;19.17;13.87;;;7.10;99.90;;;;;;5003261;28;20250;-69
2023/02/05 03:39:42;;;;;;;26.67;14.30;;;7.20;99.90;;;;;;5018161;28;20175;-68
2023/02/05 03:42:34;;;;;;;24.93;14.10;;;7.20;99.90;;;;;;5017531;28;20191;-68
2023/02/05 03:45:05;;;;;;;28.03;14.87;;;7.20;99.90;;;;;;5018168;28;20183;-68
2023/02/05 03:47:46;;;;;;;26.93;15.27;;;7.20;99.90;;;;;;5017010;28;20197;-69
2023/02/05 03:50:18;;;;;;;32.47;15.53;;;7.20;99.90;;;;;;5015751;28;20788;-69
2023/02/05 03:52:53;;;;;;;23.03;14.90;;;7.20;99.90;;;;;;5017249;28;20183;-69
2023/02/05 03:55:26;;;;;;;26.13;13.83;;;7.30;99.90;;;;;;5016724;28;20176;-69
2023/02/05 03:58:17;;;;;;;23.40;15.63;;;7.30;99.90;;;;;;5018096;28;20204;-68
2023/02/05 04:00:43;;;;;;;33.37;14.33;;;7.40;99.90;;;;;;5018804;28;20230;-68
2023/02/05 04:03:09;;;;;;;19.47;13.57;;;7.40;99.90;;;;;;5016401;28;20196;-70
2023/02/05 04:05:35;;;;;;;24.53;14.37;;;7.40;99.90;;;;;;5018671;28;20373;-68
2023/02/05 04:08:01;;;;;;;23.73;13.67;;;7.40;99.90;;;;;;5018143;28;20184;-68
2023/02/05 04:10:26;;;;;;;28.23;14.67;;;7.40;99.90;;;;;;5018234;28;20169;-67
2023/02/05 04:12:52;;;;;;;20.83;13.83;;;7.40;99.90;;;;;;5018475;28;20263;-66
2023/02/05 04:15:18;;;;;;;28.33;15.07;;;7.40;99.90;;;;;;5018479;28;20195;-68
2023/02/05 04:17:44;;;;;;;27.23;15.30;;;7.40;99.90;;;;;;5017456;28;20636;-69
2023/02/05 04:20:10;;;;;;;20.17;14.40;;;7.50;99.90;;;;;;5018388;28;20199;-69
2023/02/05 04:22:35;;;;;;;20.67;15.07;;;7.40;99.90;;;;;;5018374;28;20180;-69
2023/02/05 04:25:01;;;;;;;23.03;16.23;;;7.40;99.90;;;;;;5018723;28;20172;-69
2023/02/05 04:27:27;;;;;;;30.70;17.53;;;7.40;99.90;;;;;;5018347;28;20685;-68
2023/02/05 04:29:52;;;;;;;23.13;16.47;;;7.40;99.90;;;;;;5015830;28;20177;-69
2023/02/05 04:32:18;;;;;;;32.73;18.00;;;7.50;99.90;;;;;;5016630;28;20179;-69
2023/02/05 04:34:44;;;;;;;23.50;15.93;;;7.40;99.90;;;;;;5017321;28;20527;-70
2023/02/05 04:37:10;;;;;;;26.43;16.57;;;7.50;99.90;;;;;;5017623;28;20342;-70
2023/02/05 04:39:36;;;;;;;26.67;15.27;;;7.50;99.90;;;;;;5018599;28;20181;-70
2023/02/05 04:42:02;;;;;;;31.83;16.47;;;7.40;99.90;;;;;;5018021;28;20681;-68
2023/02/05 04:44:27;;;;;;;29.93;18.40;;;7.40;99.90;;;;;;5019850;28;20282;-70
2023/02/05 04:46:53;;;;;;;36.13;17.00;;;7.40;99.90;;;;;;5015395;28;20203;-67
2023/02/05 04:49:19;;;;;;;20.47;13.70;;;7.40;99.90;;;;;;5017392;28;20172;-68
2023/02/05 04:51:45;;;;;;;35.23;18.63;;;7.40;99.90;;;;;;5017730;28;20261;-67
2023/02/05 04:54:10;;;;;;;36.03;19.53;;;7.40;99.90;;;;;;5018337;28;20187;-67
2023/02/05 04:56:37;;;;;;;29.23;16.37;;;7.30;99.90;;;;;;5016932;28;20204;-69
2023/02/05 04:59:02;;;;;;;33.90;17.30;;;7.40;99.90;;;;;;5015699;28;20184;-68
2023/02/05 05:01:28;;;;;;;33.63;19.00;;;7.30;99.90;;;;;;5017092;28;20218;-67
2023/02/05 05:03:54;;;;;;;28.73;17.30;;;7.40;99.90;;;;;;5018171;28;20223;-69
2023/02/05 05:06:20;;;;;;;34.73;17.53;;;7.30;99.90;;;;;;5018153;28;20240;-68
2023/02/05 05:08:46;;;;;;;23.40;13.53;;;7.30;99.90;;;;;;5017093;28;20263;-68
2023/02/05 05:11:14;;;;;;;26.07;15.67;;;7.30;99.90;;;;;;5018166;28;20259;-69
2023/02/05 05:13:41;;;;;;;24.07;15.07;;;7.30;99.90;;;;;;5019794;28;20164;-68
2023/02/05 05:16:07;;;;;;;27.63;15.47;;;7.30;99.90;;;;;;5018510;28;20267;-66
2023/02/05 05:18:33;;;;;;;26.70;17.53;;;7.30;99.90;;;;;;5019427;28;20246;-68
2023/02/05 05:21:00;;;;;;;21.13;16.03;;;7.30;99.90;;;;;;5017726;28;20600;-68
2023/02/05 05:23:26;;;;;;;29.57;15.60;;;7.30;99.90;;;;;;5019368;28;20295;-68
2023/02/05 05:25:52;;;;;;;28.63;17.97;;;7.30;99.90;;;;;;5019434;28;20211;-67
2023/02/05 05:28:18;;;;;;;23.23;15.00;;;7.30;99.90;;;;;;5018589;28;20176;-68
2023/02/05 05:30:45;;;;;;;23.03;15.13;;;7.30;99.90;;;;;;5019319;28;20645;-67
2023/02/05 05:33:11;;;;;;;24.70;15.30;;;7.30;99.90;;;;;;4999807;28;20200;-68
2023/02/05 05:35:37;;;;;;;27.70;17.33;;;7.30;99.90;;;;;;4998916;28;20187;-68
2023/02/05 05:38:03;;;;;;;20.03;14.37;;;7.30;99.90;;;;;;5018635;28;20203;-67
2023/02/05 05:46:05;;;;;;;27.30;13.90;;;7.30;99.90;;;;;;5018831;28;20575;-69
2023/02/05 05:48:31;;;;;;;22.57;14.97;;;7.20;99.90;;;;;;5018841;28;20180;-66
2023/02/05 05:50:56;;;;;;;31.40;15.90;;;7.20;99.90;;;;;;5016626;28;20279;-66
2023/02/05 05:53:22;;;;;;;34.13;16.17;;;7.20;99.90;;;;;;5018773;28;20634;-68
2023/02/05 05:55:48;;;;;;;25.70;14.80;;;7.10;99.90;;;;;;5015954;28;20188;-67
2023/02/05 05:58:14;;;;;;;26.17;15.90;;;7.10;99.90;;;;;;5016017;28;20664;-67
2023/02/05 06:00:40;;;;;;;30.77;18.07;;;7.10;99.90;;;;;;5015879;28;20772;-67
2023/02/05 06:03:08;;;;;;;31.70;18.37;;;7.10;99.90;;;;;;5015805;28;20215;-65
2023/02/05 06:05:34;;;;;;;29.17;16.57;;;7.10;99.90;;;;;;5017616;28;20186;-67
2023/02/05 06:07:59;;;;;;;31.97;19.07;;;7.10;99.90;;;;;;5019996;28;20646;-68
2023/02/05 06:10:25;;;;;;;39.30;17.47;;;7.10;99.90;;;;;;5018634;28;20184;-67
2023/02/05 06:12:54;;;;;;;39.60;18.60;;;7.10;99.90;;;;;;5018443;28;20191;-67
2023/02/05 06:15:20;;;;;;;44.53;17.90;;;7.10;99.90;;;;;;5019369;28;20204;-68
2023/02/05 06:17:46;;;;;;;37.87;19.00;;;7.10;99.90;;;;;;5021356;28;20206;-67
2023/02/05 06:20:13;;;;;;;33.63;19.17;;;7.10;99.90;;;;;;5022278;28;20207;-71
2023/02/05 06:22:39;;;;;;;30.50;16.27;;;7.10;99.90;;;;;;5019110;28;20176;-68
2023/02/05 06:25:06;;;;;;;34.67;18.33;;;7.10;99.90;;;;;;5019552;28;20184;-69
2023/02/05 06:27:32;;;;;;;22.87;14.93;;;7.10;99.90;;;;;;5019365;28;20196;-69
2023/02/05 06:29:58;;;;;;;35.67;17.77;;;7.10;99.90;;;;;;5003870;28;20211;-64
2023/02/05 06:32:24;;;;;;;33.90;17.20;;;7.10;99.90;;;;;;5021402;28;20195;-64
2023/02/05 06:34:49;;;;;;;28.87;17.13;;;7.10;99.90;;;;;;5021710;28;20251;-64
2023/02/05 06:37:15;;;;;;;29.90;16.47;;;7.10;99.90;;;;;;5019018;28;20219;-66
2023/02/05 06:39:41;;;;;;;27.97;15.93;;;7.10;99.90;;;;;;5000614;28;20185;-64
2023/02/05 06:42:06;;;;;;;29.03;17.50;;;7.10;99.90;;;;;;5000358;28;20251;-65
2023/02/05 06:44:33;;;;;;;28.53;17.53;;;7.10;99.90;;;;;;5016718;28;20230;-65
2023/02/05 06:46:59;;;;;;;26.87;16.07;;;7.10;99.90;;;;;;5017734;28;20200;-65
2023/02/05 06:49:25;;;;;;;22.83;16.23;;;7.10;99.90;;;;;;5013271;28;20222;-65
2023/02/05 06:51:50;;;;;;;16.97;12.33;;;7.00;99.90;;;;;;5014467;28;20204;-64
2023/02/05 06:54:16;;;;;;;18.30;12.73;;;7.00;99.90;;;;;;5014398;28;20652;-64
2023/02/05 06:56:41;;;;;;;26.83;15.40;;;7.00;99.90;;;;;;5014288;28;20291;-64
2023/02/05 06:59:07;;;;;;;21.53;13.13;;;7.00;99.90;;;;;;5013611;28;20242;-65
2023/02/05 07:01:32;;;;;;;15.87;12.87;;;7.00;99.90;;;;;;5014313;28;20271;-64
2023/02/05 07:03:58;;;;;;;23.53;14.93;;;7.00;99.90;;;;;;5013873;28;20665;-64
2023/02/05 07:06:25;;;;;;;27.00;16.30;;;7.00;99.90;;;;;;5014238;28;20204;-64
2023/02/05 07:08:52;;;;;;;25.43;16.17;;;7.00;99.90;;;;;;5014009;28;20176;-64
2023/02/05 07:11:18;;;;;;;27.67;14.70;;;7.00;99.90;;;;;;5013688;28;20188;-64
2023/02/05 07:13:44;;;;;;;12.07;10.97;;;7.00;99.90;;;;;;5013714;28;20188;-64
2023/02/05 07:16:10;;;;;;;24.37;13.67;;;7.00;99.90;;;;;;5012131;28;20223;-64
2023/02/05 07:18:35;;;;;;;17.47;11.20;;;7.00;99.90;;;;;;5014463;28;20692;-64
2023/02/05 07:21:06;;;;;;;16.63;13.37;;;7.00;99.90;;;;;;5013243;28;20187;-64
2023/02/05 07:23:32;;;;;;;19.03;13.90;;;7.00;99.90;;;;;;5013589;28;20200;-64
2023/02/05 07:25:58;;;;;;;24.03;15.27;;;7.00;99.90;;;;;;5012360;28;20211;-64
2023/02/05 07:28:23;;;;;;;18.70;12.27;;;7.00;99.90;;;;;;5013557;28;20180;-64
2023/02/05 07:30:49;;;;;;;25.33;15.90;;;7.00;99.90;;;;;;5013332;28;20203;-64
2023/02/05 07:33:16;;;;;;;19.03;13.00;;;7.00;99.90;;;;;;5013121;28;20188;-64
2023/02/05 07:35:42;;;;;;;19.30;13.63;;;7.00;99.90;;;;;;5012038;28;20207;-64
2023/02/05 07:40:36;;;;;;;22.70;15.17;;;7.00;99.90;;;;;;5031673;28;20651;-65
2023/02/05 07:43:02;;;;;;;26.17;15.20;;;7.00;99.90;;;;;;5032886;28;20691;-66
2023/02/05 07:45:27;;;;;;;19.47;12.53;;;7.00;99.90;;;;;;5033302;28;20172;-65
2023/02/05 07:47:53;;;;;;;18.40;13.53;;;7.00;99.90;;;;;;5032551;28;20196;-66
2023/02/05 07:50:18;;;;;;;23.07;13.23;;;7.00;99.90;;;;;;5032762;28;20207;-66
2023/02/05 07:52:44;;;;;;;19.83;15.47;;;7.00;99.90;;;;;;5032842;28;20167;-66
2023/02/05 07:55:10;;;;;;;22.60;14.73;;;7.00;99.90;;;;;;5032229;28;20632;-66
2023/02/05 07:57:35;;;;;;;21.10;14.27;;;6.90;99.90;;;;;;5032620;28;20192;-65
2023/02/05 08:00:01;;;;;;;18.27;15.00;;;7.00;99.90;;;;;;5032441;28;20171;-65
2023/02/05 08:02:26;;;;;;;15.90;13.57;;;7.00;99.90;;;;;;5032904;28;20254;-65
2023/02/05 08:04:52;;;;;;;13.40;12.13;;;7.00;99.90;;;;;;5032675;28;20687;-65
2023/02/05 08:07:18;;;;;;;19.80;14.13;;;6.90;99.90;;;;;;5032213;28;20199;-65
2023/02/05 08:09:43;;;;;;;17.13;13.03;;;6.90;99.90;;;;;;5032122;28;20210;-64
2023/02/05 08:12:09;;;;;;;21.83;15.57;;;6.90;99.90;;;;;;5032563;28;20176;-65
2023/02/05 08:14:35;;;;;;;14.40;10.13;;;6.90;99.90;;;;;;5032320;28;20183;-64
2023/02/05 08:17:00;;;;;;;13.77;10.87;;;6.90;99.90;;;;;;5032423;28;20195;-64
2023/02/05 08:19:26;;;;;;;17.67;12.80;;;6.90;99.90;;;;;;5031789;28;20171;-65
2023/02/05 08:21:52;;;;;;;14.87;11.53;;;6.90;99.90;;;;;;5032402;28;20175;-65
2023/02/05 08:24:18;;;;;;;18.47;12.90;;;6.80;99.90;;;;;;5031846;28;20241;-65
2023/02/05 08:26:43;;;;;;;23.80;12.77;;;6.80;99.90;;;;;;5032182;28;20191;-65
2023/02/05 08:29:10;;;;;;;12.63;11.33;;;6.80;99.90;;;;;;5031295;28;20179;-65
2023/02/05 08:31:36;;;;;;;16.67;12.97;;;6.80;99.90;;;;;;5031913;28;20477;-65
2023/02/05 08:34:02;;;;;;;15.37;11.90;;;6.80;99.90;;;;;;5032120;28;20167;-65
2023/02/05 08:36:28;;;;;;;11.43;10.23;;;6.80;99.90;;;;;;5031976;28;20188;-65
2023/02/05 08:38:54;;;;;;;12.13;10.63;;;6.80;99.90;;;;;;5031802;28;20253;-64
2023/02/05 08:41:20;;;;;;;14.63;12.70;;;6.80;99.90;;;;;;5031732;28;20171;-64
2023/02/05 08:43:48;;;;;;;12.57;10.43;;;6.80;99.90;;;;;;5032081;28;20215;-64
2023/02/05 08:46:20;;;;;;;12.47;11.17;;;6.80;99.90;;;;;;5031743;28;20653;-65
2023/02/05 08:48:47;;;;;;;16.07;13.20;;;6.80;99.90;;;;;;5031790;28;20700;-65
2023/02/05 08:51:14;;;;;;;20.77;13.30;;;6.80;99.90;;;;;;5031305;28;20251;-66
2023/02/05 08:53:40;;;;;;;12.67;11.63;;;6.80;99.90;;;;;;5031522;28;20653;-65
2023/02/05 08:56:09;;;;;;;8.83;8.10;;;6.70;99.90;;;;;;5031433;28;20176;-65
2023/02/05 08:58:35;;;;;;;7.00;6.60;;;6.60;99.90;;;;;;5018283;28;20184;-66
2023/02/05 09:01:13;;;;;;;6.67;6.27;;;6.40;99.90;;;;;;5010300;28;20177;-66
2023/02/05 09:03:39;;;;;;;6.00;5.80;;;6.30;99.90;;;;;;5026709;28;20214;-65
2023/02/05 09:06:11;;;;;;;6.30;6.00;;;6.20;99.90;;;;;;5031473;28;20163;-65
2023/02/05 09:08:37;;;;;;;6.07;5.77;;;6.20;99.90;;;;;;5030939;28;20195;-65
2023/02/05 09:11:03;;;;;;;6.20;5.73;;;6.10;99.90;;;;;;5030138;28;20163;-65
2023/02/05 09:13:29;;;;;;;5.77;5.57;;;6.10;99.90;;;;;;5021070;28;20268;-66
2023/02/05 09:15:55;;;;;;;6.10;5.80;;;6.10;99.90;;;;;;5011592;28;20255;-65
2023/02/05 09:18:21;;;;;;;5.77;5.50;;;6.20;99.90;;;;;;5030846;28;20290;-64
2023/02/05 09:20:48;;;;;;;6.13;5.87;;;6.30;99.90;;;;;;5031164;28;20180;-65
2023/02/05 09:23:16;;;;;;;5.70;5.50;;;6.30;99.90;;;;;;5030832;28;20207;-65
2023/02/05 09:25:42;;;;;;;6.17;5.60;;;6.30;99.90;;;;;;5031573;28;20171;-65
2023/02/05 09:28:10;;;;;;;6.67;6.27;;;6.40;99.90;;;;;;5031247;28;20596;-66
2023/02/05 09:30:37;;;;;;;6.37;6.10;;;6.40;99.90;;;;;;5031124;28;20164;-65
2023/02/05 09:33:03;;;;;;;6.70;6.40;;;6.40;99.90;;;;;;5031151;28;20598;-65
2023/02/05 09:35:31;;;;;;;5.87;5.67;;;6.50;99.90;;;;;;5030984;28;20287;-65
2023/02/05 09:37:56;;;;;;;6.17;5.90;;;6.50;99.90;;;;;;5031245;28;20668;-65
2023/02/05 09:40:26;;;;;;;6.60;6.30;;;6.50;99.90;;;;;;5033414;28;20182;-65
2023/02/05 09:43:24;;;;;;;5.90;5.70;;;6.50;99.90;;;;;;5035276;28;20290;-66
2023/02/05 09:45:58;;;;;;;6.37;6.07;;;6.60;99.90;;;;;;4995346;28;20196;-65
2023/02/05 09:48:23;;;;;;;6.00;5.70;;;6.70;99.90;;;;;;5015691;28;20211;-65
2023/02/05 09:50:49;;;;;;;6.07;5.77;;;6.80;99.90;;;;;;5021188;28;20187;-65
2023/02/05 09:53:20;;;;;;;6.40;5.93;;;6.70;99.90;;;;;;5034912;28;20660;-66
2023/02/05 09:55:46;;;;;;;13.27;7.37;;;6.60;99.90;;;;;;5035066;28;20175;-65
2023/02/05 09:58:30;;;;;;;6.73;6.33;;;6.60;99.90;;;;;;5034850;28;20199;-65
2023/02/05 10:01:24;;;;;;;6.00;5.80;;;6.60;99.90;;;;;;5034353;28;20179;-65
2023/02/05 10:03:55;;;;;;;6.13;5.80;;;6.50;99.90;;;;;;5030091;28;20222;-65
2023/02/05 10:06:30;;;;;;;5.90;5.70;;;6.60;99.90;;;;;;5034680;28;20199;-65
2023/02/05 10:09:14;;;;;;;6.77;6.47;;;6.60;99.90;;;;;;5034548;28;20171;-65
2023/02/05 10:11:53;;;;;;;7.20;6.70;;;6.50;99.90;;;;;;5034667;28;20171;-65
2023/02/05 10:14:46;;;;;;;7.03;6.63;;;6.60;99.90;;;;;;5034508;28;20182;-66
2023/02/05 10:17:23;;;;;;;9.07;8.37;;;6.60;99.90;;;;;;5033198;28;20249;-65
2023/02/05 10:20:13;;;;;;;6.60;6.30;;;6.60;99.90;;;;;;5034202;28;20209;-65
2023/02/05 10:23:26;;;;;;;7.60;6.93;;;6.60;99.90;;;;;;5034419;28;20680;-65
2023/02/05 10:26:11;;;;;;;10.10;6.17;;;6.50;99.90;;;;;;4992349;28;20184;-65
2023/02/05 10:28:52;;;;;;;7.10;6.70;;;6.60;99.90;;;;;;5014924;28;20215;-65
2023/02/05 10:31:41;;;;;;;7.30;6.70;;;6.60;99.90;;;;;;5013479;28;20172;-65
2023/02/05 10:34:37;;;;;;;16.83;6.33;;;6.50;99.90;;;;;;5030758;28;20184;-65
2023/02/05 10:37:09;;;;;;;6.20;5.90;;;6.50;99.90;;;;;;5016887;28;20207;-65
2023/02/05 10:39:35;;;;;;;6.90;6.40;;;6.50;99.90;;;;;;5033822;28;20206;-66
2023/02/05 10:42:22;;;;;;;8.23;6.60;;;6.50;99.90;;;;;;5034090;28;20172;-65
2023/02/05 10:45:00;;;;;;;5.73;5.43;;;6.50;99.90;;;;;;5033108;28;20574;-66
2023/02/05 10:47:53;;;;;;;6.40;6.00;;;6.50;99.90;;;;;;5033666;28;20194;-66
2023/02/05 10:50:50;;;;;;;5.83;5.60;;;6.60;99.90;;;;;;5029456;28;20187;-65
2023/02/05 10:53:20;;;;;;;6.73;6.43;;;6.50;99.90;;;;;;5033449;28;20275;-65
2023/02/05 10:55:46;;;;;;;8.13;5.87;;;6.50;99.90;;;;;;5034155;28;20171;-65
2023/02/05 10:58:35;;;;;;;8.27;5.60;;;6.50;99.90;;;;;;5033377;28;20226;-65
2023/02/05 11:01:03;;;;;;;6.37;6.07;;;6.50;99.90;;;;;;5028315;28;20186;-65
2023/02/05 11:03:29;;;;;;;5.80;5.60;;;6.50;99.90;;;;;;5033412;28;20265;-65
2023/02/05 11:05:57;;;;;;;6.27;5.80;;;6.50;99.90;;;;;;5033318;28;20171;-65
2023/02/05 11:08:39;;;;;;;7.03;6.43;;;6.50;99.90;;;;;;5030839;28;20529;-64
2023/02/05 11:11:15;;;;;;;7.67;6.93;;;6.50;99.90;;;;;;5032759;28;20187;-65
2023/02/05 11:13:49;;;;;;;7.20;6.80;;;6.60;99.90;;;;;;5031817;28;20528;-65
2023/02/05 11:16:15;;;;;;;6.80;6.30;;;6.60;99.90;;;;;;5033621;28;20174;-65
2023/02/05 11:18:54;;;;;;;6.23;5.83;;;6.60;99.90;;;;;;5034634;28;20533;-65
2023/02/05 11:21:20;;;;;;;6.40;6.10;;;6.60;99.90;;;;;;5034123;28;20219;-64
2023/02/05 11:23:55;;;;;;;6.07;5.77;;;6.60;99.90;;;;;;5033484;28;20261;-65
2023/02/05 11:26:24;;;;;;;6.50;5.87;;;6.60;99.90;;;;;;5033614;28;20556;-64
2023/02/05 11:28:49;;;;;;;17.73;7.00;;;6.60;99.90;;;;;;5031601;28;20214;-65
2023/02/05 11:31:32;;;;;;;5.70;5.50;;;6.60;99.90;;;;;;5032079;28;20183;-64
2023/02/05 11:34:06;;;;;;;6.03;5.73;;;6.60;99.90;;;;;;5013532;28;20216;-64
2023/02/05 11:36:32;;;;;;;7.43;6.57;;;6.60;99.90;;;;;;5013371;28;20192;-65
2023/02/05 11:38:58;;;;;;;6.80;6.30;;;6.70;99.90;;;;;;5013239;28;20304;-65
2023/02/05 11:41:28;;;;;;;7.27;6.50;;;6.70;99.90;;;;;;5013060;28;20206;-64
2023/02/05 11:43:56;;;;;;;8.30;7.00;;;6.70;99.90;;;;;;5013415;28;20207;-65
2023/02/05 11:46:24;;;;;;;7.10;6.60;;;6.70;99.90;;;;;;5019281;28;20199;-64
2023/02/05 11:48:56;;;;;;;12.57;6.80;;;6.80;99.90;;;;;;5033002;28;20202;-64
2023/02/05 11:51:39;;;;;;;6.93;6.37;;;6.70;99.90;;;;;;5032106;28;20593;-65
2023/02/05 11:54:30;;;;;;;9.73;6.37;;;6.70;99.90;;;;;;5031817;28;20182;-64
2023/02/05 11:57:17;;;;;;;6.03;5.73;;;6.70;99.90;;;;;;5032492;28;20253;-65
2023/02/05 11:59:55;;;;;;;6.83;6.37;;;6.80;99.90;;;;;;5032210;28;20191;-64
2023/02/05 12:02:27;;;;;;;7.90;6.93;;;6.80;99.90;;;;;;5032123;28;20469;-64
2023/02/05 12:05:11;;;;;;;6.23;5.70;;;6.70;99.90;;;;;;5032220;28;20722;-65
2023/02/05 12:07:46;;;;;;;6.63;6.17;;;6.70;99.90;;;;;;5031879;28;20680;-65
2023/02/05 12:10:27;;;;;;;5.90;5.70;;;6.60;99.90;;;;;;5031923;28;20182;-65
2023/02/05 12:13:02;;;;;;;8.60;7.80;;;6.70;99.90;;;;;;5032126;28;20168;-65
2023/02/05 12:15:36;;;;;;;6.80;6.10;;;6.60;99.90;;;;;;5032319;28;20174;-65
2023/02/05 12:18:08;;;;;;;6.40;6.10;;;6.60;99.90;;;;;;5032370;28;20191;-65
2023/02/05 12:20:41;;;;;;;8.50;6.27;;;6.60;99.90;;;;;;5032237;28;20234;-65
2023/02/05 12:23:28;;;;;;;7.30;5.97;;;6.60;99.90;;;;;;5032318;28;20559;-65
2023/02/05 12:26:08;;;;;;;5.80;5.60;;;6.50;99.90;;;;;;5032487;28;20167;-65
2023/02/05 12:28:46;;;;;;;6.40;5.90;;;6.50;99.90;;;;;;5032454;28;20541;-65
2023/02/05 12:31:22;;;;;;;6.60;6.07;;;6.50;99.90;;;;;;5031998;28;20178;-65
2023/02/05 12:34:23;;;;;;;6.50;6.00;;;6.50;99.90;;;;;;5032321;28;20184;-65
2023/02/05 12:37:13;;;;;;;5.77;5.57;;;6.50;99.90;;;;;;5030988;28;20210;-66
2023/02/05 12:39:53;;;;;;;9.87;6.33;;;6.50;99.90;;;;;;5031127;28;20214;-66
2023/02/05 12:42:30;;;;;;;8.00;7.20;;;6.50;99.90;;;;;;5032182;28;20692;-65
2023/02/05 12:45:01;;;;;;;6.60;6.30;;;6.40;99.90;;;;;;5016475;28;20241;-65
2023/02/05 12:48:00;;;;;;;7.60;7.10;;;6.40;99.90;;;;;;5030109;28;20294;-65
2023/02/05 12:50:50;;;;;;;6.30;5.80;;;6.40;99.90;;;;;;5031600;28;20167;-65
2023/02/05 12:53:37;;;;;;;8.83;6.67;;;6.40;99.90;;;;;;5019133;28;20542;-65
2023/02/05 12:56:17;;;;;;;5.77;5.57;;;6.40;99.90;;;;;;5031443;28;20179;-65
2023/02/05 12:58:52;;;;;;;7.07;6.20;;;6.40;99.90;;;;;;5031611;28;20183;-65
2023/02/05 13:01:22;;;;;;;6.23;5.93;;;6.40;99.90;;;;;;5031391;28;20183;-66
2023/02/05 13:03:52;;;;;;;8.13;6.07;;;6.40;99.90;;;;;;5031617;28;20207;-65
2023/02/05 13:06:26;;;;;;;7.27;6.77;;;6.40;99.90;;;;;;5031958;28;20664;-65
2023/02/05 13:08:56;;;;;;;6.37;5.73;;;6.40;99.90;;;;;;5030612;28;20206;-65